Flight Briefing for CPX794

Departure Arrival
Aeropuerto Internacional Ezeiza/Ministro Pistarini (SAEZ)
Click to view FAA NOTAMS
Miami International Airport (KMIA)
Click to view FAA NOTAMS
Departure Time Arrival Time
N/A N/A
Aircraft Distance
B747-400BCF 3849nm
Departure METAR Arrival METAR
SAEZ 190700Z 17007KT CAVOK 15/13 Q1012 NOSIG KMIA 190653Z 35008KT 8SM OVC011 21/19 A3000 RMK AO2 SLP160 T02110194
Suggested Route
UCA UA301 URSUS FLIPR6


View recent IFR Routes data
Notes



Charts and Procedures

Charts for SAEZ
No chart available
Charts for KMIA
No chart available

Windy.com Weather Map